createdAt,value
2019-03-29T00:00:49.334Z,11.57
2019-03-29T00:02:24.890Z,11.43
2019-03-29T00:04:00.852Z,11.30
2019-03-29T00:05:36.138Z,11.03
2019-03-29T00:07:11.333Z,11.23
2019-03-29T00:08:46.578Z,11.33
2019-03-29T00:10:21.751Z,11.30
2019-03-29T00:11:57.032Z,11.80
2019-03-29T00:13:32.248Z,11.93
2019-03-29T00:15:08.084Z,12.63
2019-03-29T00:16:43.576Z,11.93
2019-03-29T00:18:18.754Z,11.63
2019-03-29T00:19:54.913Z,12.20
2019-03-29T00:21:30.151Z,12.43
2019-03-29T00:23:05.424Z,12.33
2019-03-29T00:24:41.107Z,12.37
2019-03-29T00:26:16.420Z,12.10
2019-03-29T00:27:51.605Z,12.53
2019-03-29T00:29:26.806Z,13.00
2019-03-29T00:31:02.023Z,12.27
2019-03-29T00:32:37.192Z,12.63
2019-03-29T00:34:12.363Z,13.30
2019-03-29T00:35:48.539Z,12.77
2019-03-29T00:37:23.742Z,13.53
2019-03-29T00:38:58.946Z,13.00
2019-03-29T00:40:34.208Z,12.63
2019-03-29T00:42:09.408Z,13.80
2019-03-29T00:43:44.584Z,13.13
2019-03-29T00:45:19.781Z,14.40
2019-03-29T00:46:55.002Z,12.30
2019-03-29T00:48:30.189Z,14.03
2019-03-29T00:50:06.333Z,14.63
2019-03-29T00:51:42.185Z,14.33
2019-03-29T00:53:17.366Z,14.33
2019-03-29T00:54:52.566Z,14.23
2019-03-29T00:56:27.770Z,14.50
2019-03-29T00:58:03.353Z,15.27
2019-03-29T00:59:38.590Z,15.10
2019-03-29T01:01:13.821Z,14.93
2019-03-29T01:02:49.191Z,13.80
2019-03-29T01:04:24.376Z,14.70
2019-03-29T01:05:59.583Z,14.83
2019-03-29T01:07:34.762Z,14.20
2019-03-29T01:09:09.961Z,15.13
2019-03-29T01:10:45.123Z,14.97
2019-03-29T01:12:20.309Z,15.43
2019-03-29T01:13:55.494Z,15.40
2019-03-29T01:15:30.670Z,15.30
2019-03-29T01:17:05.927Z,14.93
2019-03-29T01:18:41.096Z,14.90
2019-03-29T01:20:16.348Z,15.87
2019-03-29T01:21:51.536Z,15.70
2019-03-29T01:23:26.699Z,14.20
2019-03-29T01:25:01.900Z,14.57
2019-03-29T01:26:37.118Z,14.77
2019-03-29T01:28:12.365Z,14.50
2019-03-29T01:29:47.663Z,15.17
2019-03-29T01:31:22.891Z,15.67
2019-03-29T01:32:58.926Z,15.60
2019-03-29T01:34:34.242Z,15.20
2019-03-29T01:36:09.511Z,14.87
2019-03-29T01:37:45.987Z,14.67
2019-03-29T01:39:21.271Z,15.00
2019-03-29T01:41:00.985Z,15.83
2019-03-29T01:42:36.358Z,15.63
2019-03-29T01:44:11.555Z,14.77
2019-03-29T01:45:46.785Z,15.10
2019-03-29T01:47:21.978Z,15.03
2019-03-29T01:48:57.175Z,15.57
2019-03-29T01:50:32.349Z,16.00
2019-03-29T01:52:07.613Z,15.57
2019-03-29T01:53:42.831Z,14.63
2019-03-29T01:55:18.004Z,16.33
2019-03-29T01:56:54.152Z,15.27
2019-03-29T01:58:29.343Z,15.93
2019-03-29T02:00:05.228Z,15.47
2019-03-29T02:01:40.491Z,15.33
2019-03-29T02:03:15.680Z,15.67
2019-03-29T02:04:50.864Z,16.13
2019-03-29T02:06:26.037Z,15.90
2019-03-29T02:08:01.226Z,16.07
2019-03-29T02:09:36.521Z,16.23
2019-03-29T02:11:11.747Z,16.53
2019-03-29T02:12:46.953Z,16.73
2019-03-29T02:14:22.401Z,14.90
2019-03-29T02:15:57.581Z,16.50
2019-03-29T02:17:32.763Z,16.00
2019-03-29T02:19:09.018Z,15.00
2019-03-29T02:20:44.495Z,15.37
2019-03-29T02:22:19.686Z,16.20
2019-03-29T02:23:54.867Z,16.47
2019-03-29T02:25:30.049Z,15.70
2019-03-29T02:27:05.425Z,16.73
2019-03-29T02:28:40.601Z,15.70
2019-03-29T02:30:16.188Z,15.70
2019-03-29T02:31:51.366Z,15.90
2019-03-29T02:33:26.574Z,16.97
2019-03-29T02:35:01.782Z,16.33
2019-03-29T02:36:36.971Z,15.80
2019-03-29T02:38:12.152Z,16.10
2019-03-29T02:39:47.348Z,16.67
2019-03-29T02:41:22.633Z,15.07
2019-03-29T02:42:58.222Z,15.43
2019-03-29T02:44:34.810Z,16.27
2019-03-29T02:46:10.120Z,15.83
2019-03-29T02:47:45.330Z,15.00
2019-03-29T02:49:20.511Z,16.27
2019-03-29T02:50:55.713Z,15.87
2019-03-29T02:52:30.977Z,16.10
2019-03-29T02:54:06.164Z,16.37
2019-03-29T02:55:41.370Z,14.97
2019-03-29T02:57:16.545Z,16.80
2019-03-29T02:58:51.748Z,16.10
2019-03-29T03:00:26.952Z,16.07
2019-03-29T03:02:02.315Z,16.93
2019-03-29T03:03:37.521Z,16.17
2019-03-29T03:05:13.017Z,16.67
2019-03-29T03:06:48.204Z,16.30
2019-03-29T03:08:23.455Z,16.30
2019-03-29T03:09:58.731Z,16.53
2019-03-29T03:11:33.965Z,15.70
2019-03-29T03:13:09.141Z,16.37
2019-03-29T03:14:44.325Z,15.53
2019-03-29T03:16:19.505Z,16.17
2019-03-29T03:17:54.724Z,15.93
2019-03-29T03:19:29.936Z,17.10
2019-03-29T03:21:05.208Z,16.60
2019-03-29T03:22:41.460Z,15.60
2019-03-29T03:24:16.645Z,16.67
2019-03-29T03:25:51.863Z,18.27
2019-03-29T03:27:27.026Z,17.00
2019-03-29T03:29:03.276Z,17.70
2019-03-29T03:30:38.594Z,16.83
2019-03-29T03:32:13.746Z,18.07
2019-03-29T03:33:48.925Z,16.30
2019-03-29T03:35:24.108Z,15.53
2019-03-29T03:36:59.283Z,17.03
2019-03-29T03:38:35.438Z,17.00
2019-03-29T03:40:11.111Z,17.43
2019-03-29T03:41:46.513Z,17.83
2019-03-29T03:43:21.675Z,16.27
2019-03-29T03:44:56.887Z,17.57
2019-03-29T03:46:32.061Z,16.17
2019-03-29T03:48:07.222Z,16.53
2019-03-29T03:49:42.530Z,16.30
2019-03-29T03:51:17.814Z,16.37
2019-03-29T03:52:52.990Z,15.77
2019-03-29T03:54:28.180Z,15.20
2019-03-29T03:56:04.696Z,14.30
2019-03-29T03:57:39.863Z,15.53
2019-03-29T03:59:15.329Z,15.73
2019-03-29T04:00:54.426Z,16.03
2019-03-29T04:02:29.639Z,16.33
2019-03-29T04:04:04.844Z,15.97
2019-03-29T04:05:40.026Z,15.67
2019-03-29T04:07:15.250Z,15.73
2019-03-29T04:08:50.513Z,16.23
2019-03-29T04:10:25.681Z,15.93
2019-03-29T04:12:00.856Z,15.43
2019-03-29T04:13:36.059Z,15.90
2019-03-29T04:15:11.399Z,15.97
2019-03-29T04:16:46.577Z,16.53
2019-03-29T04:18:21.856Z,15.33
2019-03-29T04:19:57.049Z,17.17
2019-03-29T04:21:32.221Z,15.73
2019-03-29T04:23:07.398Z,14.50
2019-03-29T04:24:42.607Z,16.40
2019-03-29T04:26:17.824Z,15.73
2019-03-29T04:27:53.113Z,15.53
2019-03-29T04:29:28.290Z,15.07
2019-03-29T04:31:03.667Z,15.40
2019-03-29T04:32:38.837Z,15.67
2019-03-29T04:34:14.269Z,16.00
2019-03-29T04:35:49.450Z,15.73
2019-03-29T04:37:24.609Z,15.20
2019-03-29T04:38:59.868Z,15.60
2019-03-29T04:40:35.161Z,15.83
2019-03-29T04:42:10.522Z,15.17
2019-03-29T04:43:45.797Z,14.90
2019-03-29T04:45:20.965Z,16.50
2019-03-29T04:46:56.318Z,14.90
2019-03-29T04:48:31.487Z,16.50
2019-03-29T04:50:06.799Z,14.73
2019-03-29T04:51:42.079Z,14.90
2019-03-29T04:53:17.262Z,16.07
2019-03-29T04:54:52.441Z,15.47
2019-03-29T04:56:27.632Z,15.23
2019-03-29T04:58:03.819Z,16.10
2019-03-29T04:59:39.005Z,15.20
2019-03-29T05:01:17.266Z,14.83
2019-03-29T05:02:51.167Z,15.13
2019-03-29T05:04:26.339Z,15.17
2019-03-29T05:06:01.520Z,14.50
2019-03-29T05:07:37.149Z,15.20
2019-03-29T05:09:12.528Z,15.47
2019-03-29T05:10:47.719Z,15.03
2019-03-29T05:12:22.890Z,16.20
2019-03-29T05:13:58.071Z,14.67
2019-03-29T05:15:33.252Z,15.63
2019-03-29T05:17:09.679Z,15.50
2019-03-29T05:18:44.845Z,14.93
2019-03-29T05:20:20.039Z,15.73
2019-03-29T05:21:55.234Z,14.97
2019-03-29T05:23:31.361Z,14.33
2019-03-29T05:25:06.669Z,14.93
2019-03-29T05:26:41.869Z,14.67
2019-03-29T05:28:17.033Z,14.87
2019-03-29T05:29:52.212Z,14.97
2019-03-29T05:31:27.391Z,15.20
2019-03-29T05:33:03.830Z,14.73
2019-03-29T05:34:39.000Z,14.10
2019-03-29T05:36:14.191Z,15.03
2019-03-29T05:37:49.383Z,14.50
2019-03-29T05:39:24.555Z,14.83
2019-03-29T05:40:59.725Z,14.07
2019-03-29T05:42:34.973Z,15.30
2019-03-29T05:44:10.253Z,14.30
2019-03-29T05:45:45.481Z,14.50
2019-03-29T05:47:20.720Z,14.10
2019-03-29T05:48:55.979Z,14.33
2019-03-29T05:50:31.180Z,13.63
2019-03-29T05:52:06.381Z,14.10
2019-03-29T05:53:41.562Z,14.20
2019-03-29T05:55:18.715Z,14.50
2019-03-29T05:56:53.898Z,13.87
2019-03-29T05:58:29.061Z,14.53
2019-03-29T06:00:04.738Z,13.93
2019-03-29T06:01:39.911Z,13.20
2019-03-29T06:03:15.079Z,13.67
2019-03-29T06:04:50.346Z,12.60
2019-03-29T06:06:25.912Z,13.03
2019-03-29T06:08:01.067Z,12.47
2019-03-29T06:09:36.266Z,14.20
2019-03-29T06:11:11.561Z,12.83
2019-03-29T06:12:46.757Z,12.37
2019-03-29T06:14:21.940Z,13.13
2019-03-29T06:15:57.129Z,12.60
2019-03-29T06:17:32.333Z,12.87
2019-03-29T06:19:07.522Z,12.03
2019-03-29T06:20:42.706Z,13.60
2019-03-29T06:22:19.763Z,12.20
2019-03-29T06:23:54.972Z,11.83
2019-03-29T06:25:30.143Z,11.93
2019-03-29T06:27:06.488Z,10.97
2019-03-29T06:28:41.668Z,12.20
2019-03-29T06:30:21.510Z,10.93
2019-03-29T06:31:56.801Z,11.67
2019-03-29T06:33:31.981Z,10.73
2019-03-29T06:35:07.662Z,11.17
2019-03-29T06:36:43.454Z,11.43
2019-03-29T06:38:19.230Z,10.77
2019-03-29T06:39:55.099Z,11.87
2019-03-29T06:41:30.281Z,10.70
2019-03-29T06:43:05.974Z,10.93
2019-03-29T06:44:44.187Z,11.50
2019-03-29T06:46:18.072Z,10.30
2019-03-29T06:47:53.238Z,11.60
2019-03-29T06:49:28.433Z,10.83
2019-03-29T06:51:03.619Z,11.80
2019-03-29T06:52:38.811Z,10.70
2019-03-29T06:54:14.004Z,10.93
2019-03-29T06:55:49.227Z,11.23
2019-03-29T06:57:24.417Z,11.17
2019-03-29T06:58:59.980Z,9.57
2019-03-29T07:00:35.188Z,11.80
2019-03-29T07:02:10.398Z,11.17
2019-03-29T07:03:45.581Z,10.70
2019-03-29T07:05:20.764Z,9.90
2019-03-29T07:06:55.947Z,10.73
2019-03-29T07:08:31.211Z,10.30
2019-03-29T07:10:06.809Z,11.17
2019-03-29T07:11:41.997Z,10.50
2019-03-29T07:13:17.183Z,10.30
2019-03-29T07:14:52.358Z,11.10
2019-03-29T07:16:27.539Z,10.67
2019-03-29T07:18:02.833Z,11.07
2019-03-29T07:19:38.026Z,10.87
2019-03-29T07:21:21.426Z,10.90
2019-03-29T07:22:50.130Z,9.87
2019-03-29T07:24:25.367Z,10.47
